sensor_id;sensor_type;location;lat;lon;timestamp;temperature;humidity
13928;DHT22;7036;50.834;4.718;2024-02-04T00:02:08;17.90;73.30
13928;DHT22;7036;50.834;4.718;2024-02-04T00:04:36;17.80;74.30
13928;DHT22;7036;50.834;4.718;2024-02-04T00:07:04;17.80;72.40
13928;DHT22;7036;50.834;4.718;2024-02-04T00:09:32;17.80;72.20
13928;DHT22;7036;50.834;4.718;2024-02-04T00:12:00;17.80;74.40
13928;DHT22;7036;50.834;4.718;2024-02-04T00:14:27;17.80;73.60
13928;DHT22;7036;50.834;4.718;2024-02-04T00:16:55;17.80;74.00
13928;DHT22;7036;50.834;4.718;2024-02-04T00:19:24;17.80;74.60
13928;DHT22;7036;50.834;4.718;2024-02-04T00:21:50;17.80;73.60
13928;DHT22;7036;50.834;4.718;2024-02-04T00:24:18;17.80;72.90
13928;DHT22;7036;50.834;4.718;2024-02-04T00:26:46;17.80;70.70
13928;DHT22;7036;50.834;4.718;2024-02-04T00:29:13;17.80;70.80
13928;DHT22;7036;50.834;4.718;2024-02-04T00:31:41;17.80;71.90
13928;DHT22;7036;50.834;4.718;2024-02-04T00:34:08;17.80;71.30
13928;DHT22;7036;50.834;4.718;2024-02-04T00:36:36;17.80;73.10
13928;DHT22;7036;50.834;4.718;2024-02-04T00:39:04;17.80;74.50
13928;DHT22;7036;50.834;4.718;2024-02-04T00:41:32;17.80;68.10
13928;DHT22;7036;50.834;4.718;2024-02-04T00:43:59;17.80;67.90
13928;DHT22;7036;50.834;4.718;2024-02-04T00:46:26;17.70;67.80
13928;DHT22;7036;50.834;4.718;2024-02-04T00:48:54;17.80;69.10
13928;DHT22;7036;50.834;4.718;2024-02-04T00:51:22;17.80;69.10
13928;DHT22;7036;50.834;4.718;2024-02-04T00:53:50;17.70;70.50
13928;DHT22;7036;50.834;4.718;2024-02-04T00:56:18;17.70;71.60
13928;DHT22;7036;50.834;4.718;2024-02-04T00:58:46;17.70;68.20
13928;DHT22;7036;50.834;4.718;2024-02-04T01:01:13;17.70;68.00
13928;DHT22;7036;50.834;4.718;2024-02-04T01:03:41;17.70;68.80
13928;DHT22;7036;50.834;4.718;2024-02-04T01:06:09;17.70;68.70
13928;DHT22;7036;50.834;4.718;2024-02-04T01:08:37;17.70;69.70
13928;DHT22;7036;50.834;4.718;2024-02-04T01:11:05;17.70;70.10
13928;DHT22;7036;50.834;4.718;2024-02-04T01:13:32;17.70;69.40
13928;DHT22;7036;50.834;4.718;2024-02-04T01:16:00;17.70;70.70
13928;DHT22;7036;50.834;4.718;2024-02-04T01:18:28;17.70;69.70
13928;DHT22;7036;50.834;4.718;2024-02-04T01:20:56;17.70;70.30
13928;DHT22;7036;50.834;4.718;2024-02-04T01:23:24;17.70;68.20
13928;DHT22;7036;50.834;4.718;2024-02-04T01:25:51;17.70;67.00
13928;DHT22;7036;50.834;4.718;2024-02-04T01:28:19;17.70;67.70
13928;DHT22;7036;50.834;4.718;2024-02-04T01:30:47;17.70;68.10
13928;DHT22;7036;50.834;4.718;2024-02-04T01:33:15;17.70;69.50
13928;DHT22;7036;50.834;4.718;2024-02-04T01:35:43;17.70;77.20
13928;DHT22;7036;50.834;4.718;2024-02-04T01:38:11;17.70;73.30
13928;DHT22;7036;50.834;4.718;2024-02-04T01:40:39;17.70;72.10
13928;DHT22;7036;50.834;4.718;2024-02-04T01:43:06;17.70;69.80
13928;DHT22;7036;50.834;4.718;2024-02-04T01:45:34;17.70;70.90
13928;DHT22;7036;50.834;4.718;2024-02-04T01:48:02;17.70;72.10
13928;DHT22;7036;50.834;4.718;2024-02-04T01:50:30;17.70;73.10
13928;DHT22;7036;50.834;4.718;2024-02-04T01:52:58;17.70;71.50
13928;DHT22;7036;50.834;4.718;2024-02-04T01:55:26;17.70;70.70
13928;DHT22;7036;50.834;4.718;2024-02-04T01:57:54;17.60;69.40
13928;DHT22;7036;50.834;4.718;2024-02-04T02:00:22;17.70;69.20
13928;DHT22;7036;50.834;4.718;2024-02-04T02:02:49;17.60;68.60
13928;DHT22;7036;50.834;4.718;2024-02-04T02:05:17;17.60;69.40
13928;DHT22;7036;50.834;4.718;2024-02-04T02:07:45;17.60;68.80
13928;DHT22;7036;50.834;4.718;2024-02-04T02:10:12;17.60;67.40
13928;DHT22;7036;50.834;4.718;2024-02-04T02:12:45;17.60;68.30
13928;DHT22;7036;50.834;4.718;2024-02-04T02:15:15;17.60;67.70
13928;DHT22;7036;50.834;4.718;2024-02-04T02:17:42;17.60;66.70
13928;DHT22;7036;50.834;4.718;2024-02-04T02:20:09;17.60;67.50
13928;DHT22;7036;50.834;4.718;2024-02-04T02:22:56;17.60;67.40
13928;DHT22;7036;50.834;4.718;2024-02-04T02:25:16;17.60;66.60
13928;DHT22;7036;50.834;4.718;2024-02-04T02:27:48;17.60;67.70
13928;DHT22;7036;50.834;4.718;2024-02-04T02:30:14;17.60;66.80
13928;DHT22;7036;50.834;4.718;2024-02-04T02:32:41;17.60;66.80
13928;DHT22;7036;50.834;4.718;2024-02-04T02:35:08;17.60;66.90
13928;DHT22;7036;50.834;4.718;2024-02-04T02:37:38;17.60;67.70
13928;DHT22;7036;50.834;4.718;2024-02-04T02:40:08;17.60;67.00
13928;DHT22;7036;50.834;4.718;2024-02-04T02:42:34;17.70;67.70
13928;DHT22;7036;50.834;4.718;2024-02-04T02:45:00;17.60;66.90
13928;DHT22;7036;50.834;4.718;2024-02-04T02:47:28;17.60;67.70
13928;DHT22;7036;50.834;4.718;2024-02-04T02:49:55;17.60;66.80
13928;DHT22;7036;50.834;4.718;2024-02-04T02:52:23;17.60;67.60
13928;DHT22;7036;50.834;4.718;2024-02-04T02:54:50;17.60;67.00
13928;DHT22;7036;50.834;4.718;2024-02-04T02:57:18;17.60;67.00
13928;DHT22;7036;50.834;4.718;2024-02-04T02:59:45;17.60;67.00
13928;DHT22;7036;50.834;4.718;2024-02-04T03:02:13;17.60;67.90
13928;DHT22;7036;50.834;4.718;2024-02-04T03:04:40;17.60;68.10
13928;DHT22;7036;50.834;4.718;2024-02-04T03:07:07;17.60;67.40
13928;DHT22;7036;50.834;4.718;2024-02-04T03:09:35;17.50;68.70
13928;DHT22;7036;50.834;4.718;2024-02-04T03:12:02;17.60;67.50
13928;DHT22;7036;50.834;4.718;2024-02-04T03:14:30;17.50;67.50
13928;DHT22;7036;50.834;4.718;2024-02-04T03:16:57;17.50;67.90
13928;DHT22;7036;50.834;4.718;2024-02-04T03:19:25;17.50;68.60
13928;DHT22;7036;50.834;4.718;2024-02-04T03:21:53;17.50;69.10
13928;DHT22;7036;50.834;4.718;2024-02-04T03:24:20;17.50;67.90
13928;DHT22;7036;50.834;4.718;2024-02-04T03:26:48;17.50;67.80
13928;DHT22;7036;50.834;4.718;2024-02-04T03:29:16;17.50;69.20
13928;DHT22;7036;50.834;4.718;2024-02-04T03:31:44;17.50;68.10
13928;DHT22;7036;50.834;4.718;2024-02-04T03:34:11;17.50;68.10
13928;DHT22;7036;50.834;4.718;2024-02-04T03:36:39;17.50;68.80
13928;DHT22;7036;50.834;4.718;2024-02-04T03:39:06;17.50;68.50
13928;DHT22;7036;50.834;4.718;2024-02-04T03:41:34;17.50;68.70
13928;DHT22;7036;50.834;4.718;2024-02-04T03:44:01;17.50;67.90
13928;DHT22;7036;50.834;4.718;2024-02-04T03:46:29;17.50;68.70
13928;DHT22;7036;50.834;4.718;2024-02-04T03:48:57;17.50;68.50
13928;DHT22;7036;50.834;4.718;2024-02-04T03:51:25;17.50;68.80
13928;DHT22;7036;50.834;4.718;2024-02-04T03:53:53;17.50;68.00
13928;DHT22;7036;50.834;4.718;2024-02-04T03:56:21;17.40;67.90
13928;DHT22;7036;50.834;4.718;2024-02-04T03:58:49;17.50;67.30
13928;DHT22;7036;50.834;4.718;2024-02-04T04:01:17;17.50;67.60
13928;DHT22;7036;50.834;4.718;2024-02-04T04:03:45;17.50;67.70
13928;DHT22;7036;50.834;4.718;2024-02-04T04:06:13;17.50;68.00
13928;DHT22;7036;50.834;4.718;2024-02-04T04:08:41;17.40;67.40
13928;DHT22;7036;50.834;4.718;2024-02-04T04:11:09;17.40;66.60
13928;DHT22;7036;50.834;4.718;2024-02-04T04:13:36;17.40;66.60
13928;DHT22;7036;50.834;4.718;2024-02-04T04:16:04;17.50;67.20
13928;DHT22;7036;50.834;4.718;2024-02-04T04:18:31;17.40;66.60
13928;DHT22;7036;50.834;4.718;2024-02-04T04:20:59;17.40;66.60
13928;DHT22;7036;50.834;4.718;2024-02-04T04:23:27;17.40;66.60
13928;DHT22;7036;50.834;4.718;2024-02-04T04:25:55;17.40;65.80
13928;DHT22;7036;50.834;4.718;2024-02-04T04:28:23;17.50;66.60
13928;DHT22;7036;50.834;4.718;2024-02-04T04:30:50;17.50;66.80
13928;DHT22;7036;50.834;4.718;2024-02-04T04:33:19;17.40;66.70
13928;DHT22;7036;50.834;4.718;2024-02-04T04:35:46;17.40;66.90
13928;DHT22;7036;50.834;4.718;2024-02-04T04:38:14;17.40;66.40
13928;DHT22;7036;50.834;4.718;2024-02-04T04:40:42;17.40;66.30
13928;DHT22;7036;50.834;4.718;2024-02-04T04:43:10;17.40;66.10
13928;DHT22;7036;50.834;4.718;2024-02-04T04:45:39;17.40;66.40
13928;DHT22;7036;50.834;4.718;2024-02-04T04:48:06;17.40;66.30
13928;DHT22;7036;50.834;4.718;2024-02-04T04:50:34;17.40;66.30
13928;DHT22;7036;50.834;4.718;2024-02-04T04:53:01;17.40;65.60
13928;DHT22;7036;50.834;4.718;2024-02-04T04:55:29;17.40;64.80
13928;DHT22;7036;50.834;4.718;2024-02-04T04:57:57;17.30;66.50
13928;DHT22;7036;50.834;4.718;2024-02-04T05:00:25;17.40;66.70
13928;DHT22;7036;50.834;4.718;2024-02-04T05:02:53;17.40;66.40
13928;DHT22;7036;50.834;4.718;2024-02-04T05:05:20;17.40;65.60
13928;DHT22;7036;50.834;4.718;2024-02-04T05:07:47;17.30;65.50
13928;DHT22;7036;50.834;4.718;2024-02-04T05:10:14;17.40;65.40
13928;DHT22;7036;50.834;4.718;2024-02-04T05:12:41;17.40;65.40
13928;DHT22;7036;50.834;4.718;2024-02-04T05:15:09;17.40;66.30
13928;DHT22;7036;50.834;4.718;2024-02-04T05:17:36;17.30;65.40
13928;DHT22;7036;50.834;4.718;2024-02-04T05:20:05;17.30;66.20
13928;DHT22;7036;50.834;4.718;2024-02-04T05:22:32;17.30;66.20
13928;DHT22;7036;50.834;4.718;2024-02-04T05:24:59;17.30;65.40
13928;DHT22;7036;50.834;4.718;2024-02-04T05:27:26;17.30;65.40
13928;DHT22;7036;50.834;4.718;2024-02-04T05:29:53;17.40;65.30
13928;DHT22;7036;50.834;4.718;2024-02-04T05:32:20;17.30;65.40
13928;DHT22;7036;50.834;4.718;2024-02-04T05:34:47;17.30;65.30
13928;DHT22;7036;50.834;4.718;2024-02-04T05:37:15;17.30;66.20
13928;DHT22;7036;50.834;4.718;2024-02-04T05:39:42;17.30;65.40
13928;DHT22;7036;50.834;4.718;2024-02-04T05:42:10;17.30;65.30
13928;DHT22;7036;50.834;4.718;2024-02-04T05:44:37;17.30;64.60
13928;DHT22;7036;50.834;4.718;2024-02-04T05:47:04;17.30;65.50
13928;DHT22;7036;50.834;4.718;2024-02-04T05:49:32;17.20;66.00
13928;DHT22;7036;50.834;4.718;2024-02-04T05:51:59;17.20;65.60
13928;DHT22;7036;50.834;4.718;2024-02-04T05:54:26;17.30;65.50
13928;DHT22;7036;50.834;4.718;2024-02-04T05:56:54;17.30;65.50
13928;DHT22;7036;50.834;4.718;2024-02-04T05:59:21;17.20;65.40
13928;DHT22;7036;50.834;4.718;2024-02-04T06:01:48;17.30;64.70
13928;DHT22;7036;50.834;4.718;2024-02-04T06:04:15;17.30;65.30
13928;DHT22;7036;50.834;4.718;2024-02-04T06:06:42;17.30;65.20
13928;DHT22;7036;50.834;4.718;2024-02-04T06:09:10;17.30;65.20
13928;DHT22;7036;50.834;4.718;2024-02-04T06:11:37;17.30;64.40
13928;DHT22;7036;50.834;4.718;2024-02-04T06:14:05;17.30;66.00
13928;DHT22;7036;50.834;4.718;2024-02-04T06:16:32;17.30;65.30
13928;DHT22;7036;50.834;4.718;2024-02-04T06:19:00;17.30;66.00
13928;DHT22;7036;50.834;4.718;2024-02-04T06:21:28;17.30;66.00
13928;DHT22;7036;50.834;4.718;2024-02-04T06:23:55;17.30;65.30
13928;DHT22;7036;50.834;4.718;2024-02-04T06:26:23;17.30;66.00
13928;DHT22;7036;50.834;4.718;2024-02-04T06:28:51;17.30;65.10
13928;DHT22;7036;50.834;4.718;2024-02-04T06:31:19;17.30;65.80
13928;DHT22;7036;50.834;4.718;2024-02-04T06:33:46;17.30;65.10
13928;DHT22;7036;50.834;4.718;2024-02-04T06:36:14;17.30;65.70
13928;DHT22;7036;50.834;4.718;2024-02-04T06:38:42;17.30;65.70
13928;DHT22;7036;50.834;4.718;2024-02-04T06:41:10;17.30;65.60
13928;DHT22;7036;50.834;4.718;2024-02-04T06:43:38;17.30;65.60
13928;DHT22;7036;50.834;4.718;2024-02-04T06:46:05;17.30;64.80
13928;DHT22;7036;50.834;4.718;2024-02-04T06:48:32;17.30;64.70
13928;DHT22;7036;50.834;4.718;2024-02-04T06:50:59;17.30;64.70
13928;DHT22;7036;50.834;4.718;2024-02-04T06:53:27;17.30;64.80
13928;DHT22;7036;50.834;4.718;2024-02-04T06:55:54;17.30;64.80
13928;DHT22;7036;50.834;4.718;2024-02-04T06:58:21;17.30;64.90
13928;DHT22;7036;50.834;4.718;2024-02-04T07:00:49;17.30;65.50
13928;DHT22;7036;50.834;4.718;2024-02-04T07:03:18;17.30;65.40
13928;DHT22;7036;50.834;4.718;2024-02-04T07:05:45;17.20;64.50
13928;DHT22;7036;50.834;4.718;2024-02-04T07:08:12;17.30;64.60
13928;DHT22;7036;50.834;4.718;2024-02-04T07:10:39;17.30;64.50
13928;DHT22;7036;50.834;4.718;2024-02-04T07:13:06;17.20;64.60
13928;DHT22;7036;50.834;4.718;2024-02-04T07:15:34;17.20;65.60
13928;DHT22;7036;50.834;4.718;2024-02-04T07:18:01;17.20;64.80
13928;DHT22;7036;50.834;4.718;2024-02-04T07:20:28;17.20;64.60
13928;DHT22;7036;50.834;4.718;2024-02-04T07:22:56;17.20;65.30
13928;DHT22;7036;50.834;4.718;2024-02-04T07:25:24;17.20;65.40
13928;DHT22;7036;50.834;4.718;2024-02-04T07:27:52;17.20;65.40
13928;DHT22;7036;50.834;4.718;2024-02-04T07:30:20;17.20;64.60
13928;DHT22;7036;50.834;4.718;2024-02-04T07:32:48;17.20;65.50
13928;DHT22;7036;50.834;4.718;2024-02-04T07:35:15;17.20;65.80
13928;DHT22;7036;50.834;4.718;2024-02-04T07:37:43;17.20;64.70
13928;DHT22;7036;50.834;4.718;2024-02-04T07:40:12;17.20;65.20
13928;DHT22;7036;50.834;4.718;2024-02-04T07:42:40;17.20;65.30
13928;DHT22;7036;50.834;4.718;2024-02-04T07:45:07;17.20;64.60
13928;DHT22;7036;50.834;4.718;2024-02-04T07:47:35;17.20;63.80
13928;DHT22;7036;50.834;4.718;2024-02-04T07:50:02;17.20;64.60
13928;DHT22;7036;50.834;4.718;2024-02-04T07:52:29;17.20;64.60
13928;DHT22;7036;50.834;4.718;2024-02-04T07:54:56;17.20;64.60
13928;DHT22;7036;50.834;4.718;2024-02-04T07:57:23;17.20;64.50
13928;DHT22;7036;50.834;4.718;2024-02-04T07:59:50;17.20;64.40
13928;DHT22;7036;50.834;4.718;2024-02-04T08:02:18;17.20;65.20
13928;DHT22;7036;50.834;4.718;2024-02-04T08:04:46;17.20;64.50
13928;DHT22;7036;50.834;4.718;2024-02-04T08:07:13;17.20;64.60
13928;DHT22;7036;50.834;4.718;2024-02-04T08:09:40;17.20;64.60
13928;DHT22;7036;50.834;4.718;2024-02-04T08:12:08;17.20;65.50
13928;DHT22;7036;50.834;4.718;2024-02-04T08:14:36;17.20;65.40
13928;DHT22;7036;50.834;4.718;2024-02-04T08:17:03;17.20;64.60
13928;DHT22;7036;50.834;4.718;2024-02-04T08:19:32;17.30;65.40
13928;DHT22;7036;50.834;4.718;2024-02-04T08:21:59;17.40;65.40
13928;DHT22;7036;50.834;4.718;2024-02-04T08:24:27;17.30;64.60
13928;DHT22;7036;50.834;4.718;2024-02-04T08:26:55;17.50;65.40
13928;DHT22;7036;50.834;4.718;2024-02-04T08:29:23;17.60;65.40
13928;DHT22;7036;50.834;4.718;2024-02-04T08:31:51;17.60;64.70
13928;DHT22;7036;50.834;4.718;2024-02-04T08:34:17;17.60;64.60
13928;DHT22;7036;50.834;4.718;2024-02-04T08:36:45;17.80;65.40
13928;DHT22;7036;50.834;4.718;2024-02-04T08:39:13;17.80;64.60
13928;DHT22;7036;50.834;4.718;2024-02-04T08:41:41;18.00;65.20
13928;DHT22;7036;50.834;4.718;2024-02-04T08:44:09;18.00;64.50
13928;DHT22;7036;50.834;4.718;2024-02-04T08:46:37;18.00;65.10
13928;DHT22;7036;50.834;4.718;2024-02-04T08:49:05;18.10;65.10
13928;DHT22;7036;50.834;4.718;2024-02-04T08:51:33;18.10;65.10
13928;DHT22;7036;50.834;4.718;2024-02-04T08:54:01;18.20;65.20
13928;DHT22;7036;50.834;4.718;2024-02-04T08:56:29;18.20;65.20
13928;DHT22;7036;50.834;4.718;2024-02-04T08:58:57;18.20;65.10
13928;DHT22;7036;50.834;4.718;2024-02-04T09:01:25;18.20;65.10
13928;DHT22;7036;50.834;4.718;2024-02-04T09:03:53;18.30;65.10
13928;DHT22;7036;50.834;4.718;2024-02-04T09:06:21;18.30;65.30
13928;DHT22;7036;50.834;4.718;2024-02-04T09:08:49;18.30;65.00
13928;DHT22;7036;50.834;4.718;2024-02-04T09:11:17;18.30;65.30
13928;DHT22;7036;50.834;4.718;2024-02-04T09:13:46;18.30;65.00
13928;DHT22;7036;50.834;4.718;2024-02-04T09:16:13;18.30;64.20
13928;DHT22;7036;50.834;4.718;2024-02-04T09:18:40;18.30;64.20
13928;DHT22;7036;50.834;4.718;2024-02-04T09:21:07;18.30;64.20
13928;DHT22;7036;50.834;4.718;2024-02-04T09:23:34;18.30;64.10
13928;DHT22;7036;50.834;4.718;2024-02-04T09:26:02;18.30;65.00
13928;DHT22;7036;50.834;4.718;2024-02-04T09:28:29;18.30;64.10
13928;DHT22;7036;50.834;4.718;2024-02-04T09:30:57;18.30;64.90
13928;DHT22;7036;50.834;4.718;2024-02-04T09:33:25;18.30;64.20
13928;DHT22;7036;50.834;4.718;2024-02-04T09:35:53;18.30;64.90
13928;DHT22;7036;50.834;4.718;2024-02-04T09:38:21;18.30;64.80
13928;DHT22;7036;50.834;4.718;2024-02-04T09:40:49;18.30;64.80
13928;DHT22;7036;50.834;4.718;2024-02-04T09:43:17;18.30;64.00
13928;DHT22;7036;50.834;4.718;2024-02-04T09:45:43;18.30;64.00
13928;DHT22;7036;50.834;4.718;2024-02-04T09:48:11;18.30;64.70
13928;DHT22;7036;50.834;4.718;2024-02-04T09:50:39;18.20;64.70
13928;DHT22;7036;50.834;4.718;2024-02-04T09:53:07;18.20;64.60
13928;DHT22;7036;50.834;4.718;2024-02-04T09:55:36;18.20;64.60
13928;DHT22;7036;50.834;4.718;2024-02-04T09:58:03;18.20;64.00
13928;DHT22;7036;50.834;4.718;2024-02-04T10:00:30;18.30;64.00
13928;DHT22;7036;50.834;4.718;2024-02-04T10:02:58;18.30;64.80
13928;DHT22;7036;50.834;4.718;2024-02-04T10:05:26;18.30;64.80
13928;DHT22;7036;50.834;4.718;2024-02-04T10:07:54;18.30;64.80
13928;DHT22;7036;50.834;4.718;2024-02-04T10:10:22;18.30;64.90
13928;DHT22;7036;50.834;4.718;2024-02-04T10:12:50;18.30;64.80
13928;DHT22;7036;50.834;4.718;2024-02-04T10:15:18;18.30;64.80
13928;DHT22;7036;50.834;4.718;2024-02-04T10:17:46;18.30;64.80
13928;DHT22;7036;50.834;4.718;2024-02-04T10:20:13;18.30;64.10
13928;DHT22;7036;50.834;4.718;2024-02-04T10:22:40;18.30;64.00
13928;DHT22;7036;50.834;4.718;2024-02-04T10:25:08;18.30;63.30
13928;DHT22;7036;50.834;4.718;2024-02-04T10:27:35;18.40;64.00
13928;DHT22;7036;50.834;4.718;2024-02-04T10:30:03;18.30;64.70
13928;DHT22;7036;50.834;4.718;2024-02-04T10:32:30;18.30;64.80
13928;DHT22;7036;50.834;4.718;2024-02-04T10:34:57;18.30;64.00
13928;DHT22;7036;50.834;4.718;2024-02-04T10:37:25;18.30;64.80
13928;DHT22;7036;50.834;4.718;2024-02-04T10:39:53;18.30;64.00
13928;DHT22;7036;50.834;4.718;2024-02-04T10:42:29;18.30;64.10
13928;DHT22;7036;50.834;4.718;2024-02-04T10:44:48;18.30;65.20
13928;DHT22;7036;50.834;4.718;2024-02-04T10:47:16;18.30;64.10
13928;DHT22;7036;50.834;4.718;2024-02-04T10:49:45;18.40;64.90
13928;DHT22;7036;50.834;4.718;2024-02-04T10:52:11;18.30;64.80
13928;DHT22;7036;50.834;4.718;2024-02-04T10:54:39;18.30;64.10
13928;DHT22;7036;50.834;4.718;2024-02-04T10:57:07;18.40;64.10
13928;DHT22;7036;50.834;4.718;2024-02-04T10:59:34;18.30;64.80
13928;DHT22;7036;50.834;4.718;2024-02-04T11:02:01;18.30;64.10
13928;DHT22;7036;50.834;4.718;2024-02-04T11:04:29;18.30;64.90
13928;DHT22;7036;50.834;4.718;2024-02-04T11:06:57;18.30;64.90
13928;DHT22;7036;50.834;4.718;2024-02-04T11:09:25;18.30;64.90
13928;DHT22;7036;50.834;4.718;2024-02-04T11:11:52;18.30;64.20
13928;DHT22;7036;50.834;4.718;2024-02-04T11:14:21;18.30;65.30
13928;DHT22;7036;50.834;4.718;2024-02-04T11:17:02;18.30;64.30
13928;DHT22;7036;50.834;4.718;2024-02-04T11:27:18;18.40;65.20
13928;DHT22;7036;50.834;4.718;2024-02-04T11:29:46;18.40;65.20
13928;DHT22;7036;50.834;4.718;2024-02-04T11:32:14;18.40;65.10
13928;DHT22;7036;50.834;4.718;2024-02-04T11:34:44;18.40;65.20
13928;DHT22;7036;50.834;4.718;2024-02-04T11:37:15;18.40;65.20
13928;DHT22;7036;50.834;4.718;2024-02-04T11:39:47;18.40;64.40
13928;DHT22;7036;50.834;4.718;2024-02-04T11:42:13;18.40;65.10
13928;DHT22;7036;50.834;4.718;2024-02-04T11:44:36;18.40;65.10
13928;DHT22;7036;50.834;4.718;2024-02-04T11:47:04;18.40;65.10
13928;DHT22;7036;50.834;4.718;2024-02-04T11:49:31;18.40;64.30
13928;DHT22;7036;50.834;4.718;2024-02-04T11:51:59;18.40;65.10
13928;DHT22;7036;50.834;4.718;2024-02-04T11:54:26;18.40;64.30
13928;DHT22;7036;50.834;4.718;2024-02-04T11:56:53;18.40;64.30
13928;DHT22;7036;50.834;4.718;2024-02-04T11:59:24;18.40;63.60
13928;DHT22;7036;50.834;4.718;2024-02-04T12:01:48;18.40;64.20
13928;DHT22;7036;50.834;4.718;2024-02-04T12:04:16;18.40;63.50
13928;DHT22;7036;50.834;4.718;2024-02-04T12:06:43;18.40;63.70
13928;DHT22;7036;50.834;4.718;2024-02-04T12:09:11;18.40;65.10
13928;DHT22;7036;50.834;4.718;2024-02-04T12:11:39;18.40;65.30
13928;DHT22;7036;50.834;4.718;2024-02-04T12:14:07;18.40;65.30
13928;DHT22;7036;50.834;4.718;2024-02-04T12:16:35;18.40;65.30
13928;DHT22;7036;50.834;4.718;2024-02-04T12:19:03;18.40;65.30
13928;DHT22;7036;50.834;4.718;2024-02-04T12:21:31;18.40;65.20
13928;DHT22;7036;50.834;4.718;2024-02-04T12:23:59;18.40;65.20
13928;DHT22;7036;50.834;4.718;2024-02-04T12:26:27;18.40;65.20
13928;DHT22;7036;50.834;4.718;2024-02-04T12:28:55;18.40;65.10
13928;DHT22;7036;50.834;4.718;2024-02-04T12:31:24;18.40;64.40
13928;DHT22;7036;50.834;4.718;2024-02-04T12:33:56;18.40;65.10
13928;DHT22;7036;50.834;4.718;2024-02-04T12:36:29;18.40;65.10
13928;DHT22;7036;50.834;4.718;2024-02-04T12:38:57;18.40;65.10
13928;DHT22;7036;50.834;4.718;2024-02-04T12:41:23;18.40;64.30
13928;DHT22;7036;50.834;4.718;2024-02-04T12:43:56;18.50;65.10
13928;DHT22;7036;50.834;4.718;2024-02-04T12:46:21;18.50;64.30
13928;DHT22;7036;50.834;4.718;2024-02-04T12:48:52;18.50;65.00
13928;DHT22;7036;50.834;4.718;2024-02-04T12:51:30;18.50;64.30
13928;DHT22;7036;50.834;4.718;2024-02-04T12:54:07;18.50;64.40
13928;DHT22;7036;50.834;4.718;2024-02-04T12:59:07;18.50;64.20
13928;DHT22;7036;50.834;4.718;2024-02-04T13:01:35;18.50;64.90
13928;DHT22;7036;50.834;4.718;2024-02-04T13:04:02;18.50;64.30
13928;DHT22;7036;50.834;4.718;2024-02-04T13:06:30;18.50;64.90
13928;DHT22;7036;50.834;4.718;2024-02-04T13:08:58;18.50;64.90
13928;DHT22;7036;50.834;4.718;2024-02-04T13:11:25;18.50;64.30
13928;DHT22;7036;50.834;4.718;2024-02-04T13:13:52;18.50;64.30
13928;DHT22;7036;50.834;4.718;2024-02-04T13:16:19;18.50;63.50
13928;DHT22;7036;50.834;4.718;2024-02-04T13:18:52;18.50;64.30
13928;DHT22;7036;50.834;4.718;2024-02-04T13:21:19;18.50;64.20
13928;DHT22;7036;50.834;4.718;2024-02-04T13:23:47;18.50;65.20
13928;DHT22;7036;50.834;4.718;2024-02-04T13:26:14;18.50;64.30
13928;DHT22;7036;50.834;4.718;2024-02-04T13:28:42;18.50;64.30
13928;DHT22;7036;50.834;4.718;2024-02-04T13:31:09;18.50;64.60
13928;DHT22;7036;50.834;4.718;2024-02-04T13:33:38;18.50;64.30
13928;DHT22;7036;50.834;4.718;2024-02-04T13:36:05;18.50;65.10
13928;DHT22;7036;50.834;4.718;2024-02-04T13:38:32;18.50;65.00
13928;DHT22;7036;50.834;4.718;2024-02-04T13:41:00;18.50;64.20
13928;DHT22;7036;50.834;4.718;2024-02-04T13:43:27;18.50;65.00
13928;DHT22;7036;50.834;4.718;2024-02-04T13:45:55;18.50;64.30
13928;DHT22;7036;50.834;4.718;2024-02-04T13:48:23;18.40;65.40
13928;DHT22;7036;50.834;4.718;2024-02-04T13:50:50;18.50;64.30
13928;DHT22;7036;50.834;4.718;2024-02-04T13:53:17;18.50;63.70
13928;DHT22;7036;50.834;4.718;2024-02-04T13:55:44;18.50;64.60
13928;DHT22;7036;50.834;4.718;2024-02-04T13:58:12;18.50;66.00
13928;DHT22;7036;50.834;4.718;2024-02-04T14:00:40;18.50;65.30
13928;DHT22;7036;50.834;4.718;2024-02-04T14:03:08;18.50;66.20
13928;DHT22;7036;50.834;4.718;2024-02-04T14:05:35;18.50;65.50
13928;DHT22;7036;50.834;4.718;2024-02-04T14:08:03;18.50;66.30
13928;DHT22;7036;50.834;4.718;2024-02-04T14:10:30;18.50;65.60
13928;DHT22;7036;50.834;4.718;2024-02-04T14:12:58;18.50;66.30
13928;DHT22;7036;50.834;4.718;2024-02-04T14:15:25;18.50;65.60
13928;DHT22;7036;50.834;4.718;2024-02-04T14:17:54;18.50;66.10
13928;DHT22;7036;50.834;4.718;2024-02-04T14:20:21;18.50;65.40
13928;DHT22;7036;50.834;4.718;2024-02-04T14:22:49;18.60;66.10
13928;DHT22;7036;50.834;4.718;2024-02-04T14:25:17;18.60;66.20
13928;DHT22;7036;50.834;4.718;2024-02-04T14:27:44;18.50;65.40
13928;DHT22;7036;50.834;4.718;2024-02-04T14:30:12;18.50;65.80
13928;DHT22;7036;50.834;4.718;2024-02-04T14:32:39;18.50;66.00
13928;DHT22;7036;50.834;4.718;2024-02-04T14:35:06;18.50;65.30
13928;DHT22;7036;50.834;4.718;2024-02-04T14:37:33;18.50;65.20
13928;DHT22;7036;50.834;4.718;2024-02-04T14:40:01;18.50;65.20
13928;DHT22;7036;50.834;4.718;2024-02-04T14:42:29;18.50;65.80
13928;DHT22;7036;50.834;4.718;2024-02-04T14:44:57;18.50;65.90
13928;DHT22;7036;50.834;4.718;2024-02-04T14:47:24;18.50;65.10
13928;DHT22;7036;50.834;4.718;2024-02-04T14:49:51;18.50;64.40
13928;DHT22;7036;50.834;4.718;2024-02-04T14:52:18;18.50;65.00
13928;DHT22;7036;50.834;4.718;2024-02-04T14:54:45;18.50;65.00
13928;DHT22;7036;50.834;4.718;2024-02-04T14:57:13;18.50;65.90
13928;DHT22;7036;50.834;4.718;2024-02-04T14:59:40;18.50;65.00
13928;DHT22;7036;50.834;4.718;2024-02-04T15:02:08;18.50;65.00
13928;DHT22;7036;50.834;4.718;2024-02-04T15:04:38;18.50;66.10
13928;DHT22;7036;50.834;4.718;2024-02-04T15:07:05;18.50;65.00
13928;DHT22;7036;50.834;4.718;2024-02-04T15:09:33;18.50;65.80
13928;DHT22;7036;50.834;4.718;2024-02-04T15:12:00;18.50;65.10
13928;DHT22;7036;50.834;4.718;2024-02-04T15:14:28;18.50;65.90
13928;DHT22;7036;50.834;4.718;2024-02-04T15:16:56;18.50;65.20
13928;DHT22;7036;50.834;4.718;2024-02-04T15:19:25;18.50;65.10
13928;DHT22;7036;50.834;4.718;2024-02-04T15:21:55;18.50;65.00
13928;DHT22;7036;50.834;4.718;2024-02-04T15:24:22;18.50;65.00
13928;DHT22;7036;50.834;4.718;2024-02-04T15:26:50;18.60;66.30
13928;DHT22;7036;50.834;4.718;2024-02-04T15:29:18;18.50;65.20
13928;DHT22;7036;50.834;4.718;2024-02-04T15:31:46;18.60;66.00
13928;DHT22;7036;50.834;4.718;2024-02-04T15:34:13;18.50;65.30
13928;DHT22;7036;50.834;4.718;2024-02-04T15:36:41;18.50;65.50
13928;DHT22;7036;50.834;4.718;2024-02-04T15:39:09;18.50;66.30
13928;DHT22;7036;50.834;4.718;2024-02-04T15:41:37;18.50;65.10
13928;DHT22;7036;50.834;4.718;2024-02-04T15:44:03;18.50;65.10
13928;DHT22;7036;50.834;4.718;2024-02-04T15:46:31;18.50;65.20
13928;DHT22;7036;50.834;4.718;2024-02-04T15:48:58;18.50;65.80
13928;DHT22;7036;50.834;4.718;2024-02-04T15:51:27;18.50;65.80
13928;DHT22;7036;50.834;4.718;2024-02-04T15:53:54;18.50;65.10
13928;DHT22;7036;50.834;4.718;2024-02-04T15:56:21;18.50;65.00
13928;DHT22;7036;50.834;4.718;2024-02-04T15:58:48;18.50;65.00